sensor_id;sensor_type;location;lat;lon;timestamp;temperature;humidity
55719;DHT22;41623;46.104;19.656;2022-07-25T00:00:54;717.10;947.20
55719;DHT22;41623;46.104;19.656;2022-07-25T00:03:19;717.10;947.20
55719;DHT22;41623;46.104;19.656;2022-07-25T00:05:45;717.10;947.20
55719;DHT22;41623;46.104;19.656;2022-07-25T00:08:11;717.00;947.20
55719;DHT22;41623;46.104;19.656;2022-07-25T00:10:37;716.90;921.60
55719;DHT22;41623;46.104;19.656;2022-07-25T00:13:03;716.90;947.20
55719;DHT22;41623;46.104;19.656;2022-07-25T00:15:29;716.80;972.80
55719;DHT22;41623;46.104;19.656;2022-07-25T00:17:55;716.80;998.40
55719;DHT22;41623;46.104;19.656;2022-07-25T00:20:20;716.80;972.80
55719;DHT22;41623;46.104;19.656;2022-07-25T00:22:47;716.90;998.40
55719;DHT22;41623;46.104;19.656;2022-07-25T00:25:13;716.90;947.20
55719;DHT22;41623;46.104;19.656;2022-07-25T00:27:39;716.90;947.20
55719;DHT22;41623;46.104;19.656;2022-07-25T00:30:05;716.80;947.20
55719;DHT22;41623;46.104;19.656;2022-07-25T00:32:31;692.10;921.60
55719;DHT22;41623;46.104;19.656;2022-07-25T00:34:57;691.90;896.00
55719;DHT22;41623;46.104;19.656;2022-07-25T00:37:23;691.90;998.40
55719;DHT22;41623;46.104;19.656;2022-07-25T00:39:49;716.90;1024.00
55719;DHT22;41623;46.104;19.656;2022-07-25T00:42:14;692.10;1049.60
55719;DHT22;41623;46.104;19.656;2022-07-25T00:44:40;692.10;1049.60
55719;DHT22;41623;46.104;19.656;2022-07-25T00:47:06;716.90;1075.20
55719;DHT22;41623;46.104;19.656;2022-07-25T00:49:32;717.00;1024.00
55719;DHT22;41623;46.104;19.656;2022-07-25T00:51:58;717.10;921.60
55719;DHT22;41623;46.104;19.656;2022-07-25T00:54:24;717.20;972.80
55719;DHT22;41623;46.104;19.656;2022-07-25T00:56:50;717.20;972.80
55719;DHT22;41623;46.104;19.656;2022-07-25T00:59:17;717.20;998.40
55719;DHT22;41623;46.104;19.656;2022-07-25T01:01:43;717.30;972.80
55719;DHT22;41623;46.104;19.656;2022-07-25T01:04:13;717.30;998.40
55719;DHT22;41623;46.104;19.656;2022-07-25T01:06:39;717.30;998.40
55719;DHT22;41623;46.104;19.656;2022-07-25T01:09:05;717.40;1024.00
55719;DHT22;41623;46.104;19.656;2022-07-25T01:11:31;717.50;1024.00
55719;DHT22;41623;46.104;19.656;2022-07-25T01:13:57;717.50;972.80
55719;DHT22;41623;46.104;19.656;2022-07-25T01:16:23;717.50;972.80
55719;DHT22;41623;46.104;19.656;2022-07-25T01:18:49;717.50;998.40
55719;DHT22;41623;46.104;19.656;2022-07-25T01:21:15;717.50;972.80
55719;DHT22;41623;46.104;19.656;2022-07-25T01:23:41;717.50;972.80
55719;DHT22;41623;46.104;19.656;2022-07-25T01:26:07;717.50;998.40
55719;DHT22;41623;46.104;19.656;2022-07-25T01:28:33;717.50;1024.00
55719;DHT22;41623;46.104;19.656;2022-07-25T01:30:58;717.60;998.40
55719;DHT22;41623;46.104;19.656;2022-07-25T01:33:24;717.60;998.40
55719;DHT22;41623;46.104;19.656;2022-07-25T01:35:50;717.60;972.80
55719;DHT22;41623;46.104;19.656;2022-07-25T01:38:16;717.70;998.40
55719;DHT22;41623;46.104;19.656;2022-07-25T01:40:43;717.70;998.40
55719;DHT22;41623;46.104;19.656;2022-07-25T01:43:09;717.70;972.80
55719;DHT22;41623;46.104;19.656;2022-07-25T01:45:35;717.70;998.40
55719;DHT22;41623;46.104;19.656;2022-07-25T01:48:01;717.70;998.40
55719;DHT22;41623;46.104;19.656;2022-07-25T01:50:27;717.70;998.40
55719;DHT22;41623;46.104;19.656;2022-07-25T01:52:53;717.70;998.40
55719;DHT22;41623;46.104;19.656;2022-07-25T01:55:19;717.70;998.40
55719;DHT22;41623;46.104;19.656;2022-07-25T01:57:45;717.70;998.40
55719;DHT22;41623;46.104;19.656;2022-07-25T02:00:12;717.70;998.40
55719;DHT22;41623;46.104;19.656;2022-07-25T02:02:39;717.70;998.40
55719;DHT22;41623;46.104;19.656;2022-07-25T02:05:07;717.70;998.40
55719;DHT22;41623;46.104;19.656;2022-07-25T02:07:33;717.70;972.80
55719;DHT22;41623;46.104;19.656;2022-07-25T02:09:59;717.70;998.40
55719;DHT22;41623;46.104;19.656;2022-07-25T02:12:25;742.40;1024.00
55719;DHT22;41623;46.104;19.656;2022-07-25T02:14:50;717.70;972.80
55719;DHT22;41623;46.104;19.656;2022-07-25T02:17:16;717.70;1024.00
55719;DHT22;41623;46.104;19.656;2022-07-25T02:19:42;717.70;998.40
55719;DHT22;41623;46.104;19.656;2022-07-25T02:22:09;717.70;972.80
55719;DHT22;41623;46.104;19.656;2022-07-25T02:24:35;717.70;998.40
55719;DHT22;41623;46.104;19.656;2022-07-25T02:27:05;717.70;998.40
55719;DHT22;41623;46.104;19.656;2022-07-25T02:29:31;717.70;998.40
55719;DHT22;41623;46.104;19.656;2022-07-25T02:31:57;717.70;998.40
55719;DHT22;41623;46.104;19.656;2022-07-25T02:34:24;717.70;998.40
55719;DHT22;41623;46.104;19.656;2022-07-25T02:36:50;717.70;998.40
55719;DHT22;41623;46.104;19.656;2022-07-25T02:39:15;717.60;998.40
55719;DHT22;41623;46.104;19.656;2022-07-25T02:41:42;717.70;998.40
55719;DHT22;41623;46.104;19.656;2022-07-25T02:44:08;717.60;998.40
55719;DHT22;41623;46.104;19.656;2022-07-25T02:46:34;717.60;998.40
55719;DHT22;41623;46.104;19.656;2022-07-25T02:48:59;717.60;1024.00
55719;DHT22;41623;46.104;19.656;2022-07-25T02:51:25;717.70;998.40
55719;DHT22;41623;46.104;19.656;2022-07-25T02:53:51;717.70;1024.00
55719;DHT22;41623;46.104;19.656;2022-07-25T02:56:17;717.70;1024.00
55719;DHT22;41623;46.104;19.656;2022-07-25T02:58:43;717.70;1024.00
55719;DHT22;41623;46.104;19.656;2022-07-25T03:01:08;717.70;1024.00
55719;DHT22;41623;46.104;19.656;2022-07-25T03:03:34;717.60;998.40
55719;DHT22;41623;46.104;19.656;2022-07-25T03:06:00;717.70;998.40
55719;DHT22;41623;46.104;19.656;2022-07-25T03:08:26;717.70;1024.00
55719;DHT22;41623;46.104;19.656;2022-07-25T03:10:53;717.60;1024.00
55719;DHT22;41623;46.104;19.656;2022-07-25T03:13:18;717.70;998.40
55719;DHT22;41623;46.104;19.656;2022-07-25T03:15:44;717.60;998.40
55719;DHT22;41623;46.104;19.656;2022-07-25T03:18:10;717.50;972.80
55719;DHT22;41623;46.104;19.656;2022-07-25T03:20:36;717.60;1024.00
55719;DHT22;41623;46.104;19.656;2022-07-25T03:23:02;717.70;998.40
55719;DHT22;41623;46.104;19.656;2022-07-25T03:25:27;717.70;998.40
55719;DHT22;41623;46.104;19.656;2022-07-25T03:27:53;717.70;1024.00
55719;DHT22;41623;46.104;19.656;2022-07-25T03:30:19;717.70;1075.20
55719;DHT22;41623;46.104;19.656;2022-07-25T03:32:45;717.70;1049.60
55719;DHT22;41623;46.104;19.656;2022-07-25T03:35:11;717.70;1049.60
55719;DHT22;41623;46.104;19.656;2022-07-25T03:37:37;717.70;998.40
55719;DHT22;41623;46.104;19.656;2022-07-25T03:40:03;717.70;1049.60
55719;DHT22;41623;46.104;19.656;2022-07-25T03:42:29;742.40;1049.60
55719;DHT22;41623;46.104;19.656;2022-07-25T03:44:55;742.40;1075.20
55719;DHT22;41623;46.104;19.656;2022-07-25T03:47:21;717.70;998.40
55719;DHT22;41623;46.104;19.656;2022-07-25T03:49:46;717.50;998.40
55719;DHT22;41623;46.104;19.656;2022-07-25T03:52:12;717.50;998.40
55719;DHT22;41623;46.104;19.656;2022-07-25T03:54:38;717.50;1049.60
55719;DHT22;41623;46.104;19.656;2022-07-25T03:57:04;717.50;1100.80
55719;DHT22;41623;46.104;19.656;2022-07-25T03:59:29;717.60;1049.60
55719;DHT22;41623;46.104;19.656;2022-07-25T04:01:55;717.60;1024.00
55719;DHT22;41623;46.104;19.656;2022-07-25T04:04:21;717.70;1024.00
55719;DHT22;41623;46.104;19.656;2022-07-25T04:06:47;717.70;1049.60
55719;DHT22;41623;46.104;19.656;2022-07-25T04:09:13;717.70;1049.60
55719;DHT22;41623;46.104;19.656;2022-07-25T04:11:40;717.70;1024.00
55719;DHT22;41623;46.104;19.656;2022-07-25T04:14:06;717.70;1075.20
55719;DHT22;41623;46.104;19.656;2022-07-25T04:16:32;717.70;1049.60
55719;DHT22;41623;46.104;19.656;2022-07-25T04:18:58;717.70;998.40
55719;DHT22;41623;46.104;19.656;2022-07-25T04:21:24;717.60;1049.60
55719;DHT22;41623;46.104;19.656;2022-07-25T04:23:50;717.50;1024.00
55719;DHT22;41623;46.104;19.656;2022-07-25T04:26:16;717.50;1075.20
55719;DHT22;41623;46.104;19.656;2022-07-25T04:28:42;717.50;1075.20
55719;DHT22;41623;46.104;19.656;2022-07-25T04:31:08;717.50;1024.00
55719;DHT22;41623;46.104;19.656;2022-07-25T04:33:38;717.50;1049.60
55719;DHT22;41623;46.104;19.656;2022-07-25T04:36:04;717.50;1024.00
55719;DHT22;41623;46.104;19.656;2022-07-25T04:38:30;717.40;1049.60
55719;DHT22;41623;46.104;19.656;2022-07-25T04:40:55;717.40;1075.20
55719;DHT22;41623;46.104;19.656;2022-07-25T04:43:21;717.30;1049.60
55719;DHT22;41623;46.104;19.656;2022-07-25T04:45:47;717.20;1049.60
55719;DHT22;41623;46.104;19.656;2022-07-25T04:48:13;717.10;998.40
55719;DHT22;41623;46.104;19.656;2022-07-25T05:05:17;717.70;1024.00
55719;DHT22;41623;46.104;19.656;2022-07-25T05:07:42;717.70;1049.60
55719;DHT22;41623;46.104;19.656;2022-07-25T05:10:09;717.50;1024.00
55719;DHT22;41623;46.104;19.656;2022-07-25T05:19:54;717.40;1024.00
55719;DHT22;41623;46.104;19.656;2022-07-25T05:22:19;717.00;1049.60
55719;DHT22;41623;46.104;19.656;2022-07-25T05:24:45;716.90;998.40
55719;DHT22;41623;46.104;19.656;2022-07-25T05:27:11;716.90;1024.00
55719;DHT22;41623;46.104;19.656;2022-07-25T05:29:37;717.10;998.40
55719;DHT22;41623;46.104;19.656;2022-07-25T05:32:03;716.90;1024.00
55719;DHT22;41623;46.104;19.656;2022-07-25T05:34:28;716.90;1049.60
55719;DHT22;41623;46.104;19.656;2022-07-25T05:36:54;692.10;1024.00
55719;DHT22;41623;46.104;19.656;2022-07-25T05:39:20;717.00;1152.00
55719;DHT22;41623;46.104;19.656;2022-07-25T05:41:46;691.90;998.40
55719;DHT22;41623;46.104;19.656;2022-07-25T05:44:12;692.00;998.40
55719;DHT22;41623;46.104;19.656;2022-07-25T05:46:38;691.90;1152.00
55719;DHT22;41623;46.104;19.656;2022-07-25T05:49:03;691.80;998.40
55719;DHT22;41623;46.104;19.656;2022-07-25T05:51:29;691.90;1024.00
55719;DHT22;41623;46.104;19.656;2022-07-25T05:53:55;692.00;1024.00
55719;DHT22;41623;46.104;19.656;2022-07-25T05:56:20;692.10;998.40
55719;DHT22;41623;46.104;19.656;2022-07-25T05:58:46;692.10;998.40
55719;DHT22;41623;46.104;19.656;2022-07-25T06:01:13;692.10;1024.00
55719;DHT22;41623;46.104;19.656;2022-07-25T06:03:39;716.80;1024.00
55719;DHT22;41623;46.104;19.656;2022-07-25T06:06:05;716.80;1024.00
55719;DHT22;41623;46.104;19.656;2022-07-25T06:08:36;716.90;1024.00
55719;DHT22;41623;46.104;19.656;2022-07-25T06:11:03;717.00;998.40
55719;DHT22;41623;46.104;19.656;2022-07-25T06:13:29;717.00;1024.00
55719;DHT22;41623;46.104;19.656;2022-07-25T06:15:55;717.10;998.40
55719;DHT22;41623;46.104;19.656;2022-07-25T06:18:21;717.10;1024.00
55719;DHT22;41623;46.104;19.656;2022-07-25T06:20:47;717.50;998.40
55719;DHT22;41623;46.104;19.656;2022-07-25T06:23:13;717.40;998.40
55719;DHT22;41623;46.104;19.656;2022-07-25T06:25:39;717.30;998.40
55719;DHT22;41623;46.104;19.656;2022-07-25T06:28:05;717.30;998.40
55719;DHT22;41623;46.104;19.656;2022-07-25T06:30:30;717.30;1024.00
55719;DHT22;41623;46.104;19.656;2022-07-25T06:32:56;717.30;998.40
55719;DHT22;41623;46.104;19.656;2022-07-25T06:35:22;717.40;998.40
55719;DHT22;41623;46.104;19.656;2022-07-25T06:37:48;717.40;998.40
55719;DHT22;41623;46.104;19.656;2022-07-25T06:40:14;717.40;998.40
55719;DHT22;41623;46.104;19.656;2022-07-25T06:42:41;717.40;998.40
55719;DHT22;41623;46.104;19.656;2022-07-25T06:45:08;717.40;972.80
55719;DHT22;41623;46.104;19.656;2022-07-25T06:47:35;717.50;972.80
55719;DHT22;41623;46.104;19.656;2022-07-25T06:50:02;717.60;972.80
55719;DHT22;41623;46.104;19.656;2022-07-25T06:52:28;717.60;972.80
55719;DHT22;41623;46.104;19.656;2022-07-25T06:54:54;717.70;972.80
55719;DHT22;41623;46.104;19.656;2022-07-25T06:57:20;742.40;1024.00
55719;DHT22;41623;46.104;19.656;2022-07-25T06:59:45;742.50;998.40
55719;DHT22;41623;46.104;19.656;2022-07-25T07:02:11;742.40;998.40
55719;DHT22;41623;46.104;19.656;2022-07-25T07:04:38;742.40;998.40
55719;DHT22;41623;46.104;19.656;2022-07-25T07:07:03;742.70;972.80
55719;DHT22;41623;46.104;19.656;2022-07-25T07:09:29;742.60;972.80
55719;DHT22;41623;46.104;19.656;2022-07-25T07:28:59;743.10;947.20
55719;DHT22;41623;46.104;19.656;2022-07-25T07:31:25;742.90;972.80
55719;DHT22;41623;46.104;19.656;2022-07-25T07:33:51;742.90;972.80
55719;DHT22;41623;46.104;19.656;2022-07-25T07:36:17;742.90;921.60
55719;DHT22;41623;46.104;19.656;2022-07-25T07:38:42;742.90;896.00
55719;DHT22;41623;46.104;19.656;2022-07-25T07:41:13;742.90;896.00
55719;DHT22;41623;46.104;19.656;2022-07-25T07:43:38;742.90;921.60
55719;DHT22;41623;46.104;19.656;2022-07-25T07:46:04;742.90;896.00
55719;DHT22;41623;46.104;19.656;2022-07-25T07:48:31;742.90;921.60
55719;DHT22;41623;46.104;19.656;2022-07-25T07:50:57;743.00;896.00
55719;DHT22;41623;46.104;19.656;2022-07-25T07:53:23;743.00;896.00
55719;DHT22;41623;46.104;19.656;2022-07-25T07:56:08;743.00;921.60
55719;DHT22;41623;46.104;19.656;2022-07-25T07:58:34;743.00;896.00
55719;DHT22;41623;46.104;19.656;2022-07-25T08:01:00;743.00;896.00
55719;DHT22;41623;46.104;19.656;2022-07-25T08:03:26;743.00;896.00
55719;DHT22;41623;46.104;19.656;2022-07-25T08:05:52;743.00;896.00
55719;DHT22;41623;46.104;19.656;2022-07-25T08:08:18;743.10;896.00
55719;DHT22;41623;46.104;19.656;2022-07-25T08:10:46;743.10;921.60
55719;DHT22;41623;46.104;19.656;2022-07-25T08:13:21;743.10;896.00
55719;DHT22;41623;46.104;19.656;2022-07-25T08:15:51;743.10;921.60
55719;DHT22;41623;46.104;19.656;2022-07-25T08:18:18;743.10;896.00
55719;DHT22;41623;46.104;19.656;2022-07-25T08:20:47;743.20;844.80
55719;DHT22;41623;46.104;19.656;2022-07-25T08:23:14;743.20;844.80
55719;DHT22;41623;46.104;19.656;2022-07-25T08:25:40;743.10;921.60
55719;DHT22;41623;46.104;19.656;2022-07-25T08:28:05;743.10;921.60
55719;DHT22;41623;46.104;19.656;2022-07-25T08:30:33;743.10;921.60
55719;DHT22;41623;46.104;19.656;2022-07-25T08:33:02;743.10;947.20
55719;DHT22;41623;46.104;19.656;2022-07-25T08:35:29;743.10;947.20
55719;DHT22;41623;46.104;19.656;2022-07-25T08:37:56;743.10;947.20
55719;DHT22;41623;46.104;19.656;2022-07-25T08:40:23;743.10;947.20
55719;DHT22;41623;46.104;19.656;2022-07-25T08:42:49;743.00;947.20
55719;DHT22;41623;46.104;19.656;2022-07-25T08:45:16;743.10;947.20
55719;DHT22;41623;46.104;19.656;2022-07-25T08:47:44;743.10;921.60
55719;DHT22;41623;46.104;19.656;2022-07-25T08:50:13;743.10;947.20
55719;DHT22;41623;46.104;19.656;2022-07-25T08:52:40;743.10;947.20
55719;DHT22;41623;46.104;19.656;2022-07-25T08:55:08;743.10;947.20
55719;DHT22;41623;46.104;19.656;2022-07-25T08:57:36;743.10;947.20
55719;DHT22;41623;46.104;19.656;2022-07-25T09:00:06;743.10;896.00
55719;DHT22;41623;46.104;19.656;2022-07-25T09:02:32;743.20;896.00
55719;DHT22;41623;46.104;19.656;2022-07-25T09:04:59;743.20;947.20
55719;DHT22;41623;46.104;19.656;2022-07-25T09:07:37;743.20;947.20
55719;DHT22;41623;46.104;19.656;2022-07-25T09:10:19;743.10;947.20
55719;DHT22;41623;46.104;19.656;2022-07-25T09:12:56;743.30;947.20
55719;DHT22;41623;46.104;19.656;2022-07-25T09:15:34;743.30;947.20
55719;DHT22;41623;46.104;19.656;2022-07-25T09:18:05;743.20;921.60
55719;DHT22;41623;46.104;19.656;2022-07-25T09:20:41;743.20;947.20
55719;DHT22;41623;46.104;19.656;2022-07-25T09:23:08;743.20;947.20
55719;DHT22;41623;46.104;19.656;2022-07-25T09:25:34;743.20;947.20
55719;DHT22;41623;46.104;19.656;2022-07-25T09:28:17;743.20;947.20
55719;DHT22;41623;46.104;19.656;2022-07-25T09:30:54;743.20;972.80
55719;DHT22;41623;46.104;19.656;2022-07-25T09:33:21;743.20;972.80
55719;DHT22;41623;46.104;19.656;2022-07-25T09:35:47;743.20;972.80
55719;DHT22;41623;46.104;19.656;2022-07-25T09:38:15;743.20;972.80
55719;DHT22;41623;46.104;19.656;2022-07-25T09:40:52;743.20;972.80
55719;DHT22;41623;46.104;19.656;2022-07-25T09:43:18;743.20;972.80
55719;DHT22;41623;46.104;19.656;2022-07-25T09:45:51;743.20;972.80
55719;DHT22;41623;46.104;19.656;2022-07-25T09:48:18;743.20;972.80
55719;DHT22;41623;46.104;19.656;2022-07-25T09:50:47;743.20;972.80
55719;DHT22;41623;46.104;19.656;2022-07-25T09:53:13;743.10;972.80
55719;DHT22;41623;46.104;19.656;2022-07-25T09:55:39;743.20;972.80
55719;DHT22;41623;46.104;19.656;2022-07-25T09:58:05;743.10;972.80
55719;DHT22;41623;46.104;19.656;2022-07-25T10:00:31;743.20;972.80
55719;DHT22;41623;46.104;19.656;2022-07-25T10:03:19;743.20;972.80
55719;DHT22;41623;46.104;19.656;2022-07-25T10:06:00;743.30;972.80
55719;DHT22;41623;46.104;19.656;2022-07-25T10:08:27;743.30;972.80
55719;DHT22;41623;46.104;19.656;2022-07-25T10:10:53;743.20;972.80
55719;DHT22;41623;46.104;19.656;2022-07-25T10:13:30;743.20;972.80
55719;DHT22;41623;46.104;19.656;2022-07-25T10:15:56;743.30;972.80
55719;DHT22;41623;46.104;19.656;2022-07-25T10:18:25;743.30;947.20
55719;DHT22;41623;46.104;19.656;2022-07-25T10:21:08;743.30;947.20
55719;DHT22;41623;46.104;19.656;2022-07-25T10:23:34;743.30;972.80
55719;DHT22;41623;46.104;19.656;2022-07-25T10:26:06;768.10;972.80
55719;DHT22;41623;46.104;19.656;2022-07-25T10:28:53;768.10;972.80
55719;DHT22;41623;46.104;19.656;2022-07-25T10:34:03;743.30;972.80
55719;DHT22;41623;46.104;19.656;2022-07-25T10:36:44;743.30;972.80
55719;DHT22;41623;46.104;19.656;2022-07-25T10:39:13;743.30;972.80
55719;DHT22;41623;46.104;19.656;2022-07-25T10:41:42;743.30;972.80
55719;DHT22;41623;46.104;19.656;2022-07-25T10:44:14;743.30;972.80
55719;DHT22;41623;46.104;19.656;2022-07-25T10:46:41;743.30;972.80
55719;DHT22;41623;46.104;19.656;2022-07-25T10:49:18;743.30;972.80
55719;DHT22;41623;46.104;19.656;2022-07-25T10:51:55;743.30;972.80
55719;DHT22;41623;46.104;19.656;2022-07-25T10:54:21;743.30;972.80
55719;DHT22;41623;46.104;19.656;2022-07-25T10:56:56;743.30;972.80
55719;DHT22;41623;46.104;19.656;2022-07-25T10:59:39;743.30;972.80
55719;DHT22;41623;46.104;19.656;2022-07-25T11:02:07;743.30;972.80
55719;DHT22;41623;46.104;19.656;2022-07-25T11:04:34;743.30;972.80
55719;DHT22;41623;46.104;19.656;2022-07-25T11:07:14;743.30;998.40
55719;DHT22;41623;46.104;19.656;2022-07-25T11:09:42;743.30;972.80
55719;DHT22;41623;46.104;19.656;2022-07-25T11:12:13;743.30;972.80
55719;DHT22;41623;46.104;19.656;2022-07-25T11:14:41;743.30;972.80
55719;DHT22;41623;46.104;19.656;2022-07-25T11:17:17;743.30;972.80
55719;DHT22;41623;46.104;19.656;2022-07-25T11:19:59;743.30;998.40
55719;DHT22;41623;46.104;19.656;2022-07-25T11:22:27;768.00;972.80
55719;DHT22;41623;46.104;19.656;2022-07-25T11:24:53;743.30;972.80
55719;DHT22;41623;46.104;19.656;2022-07-25T11:27:27;743.30;998.40
55719;DHT22;41623;46.104;19.656;2022-07-25T11:30:08;743.30;998.40
55719;DHT22;41623;46.104;19.656;2022-07-25T11:32:49;743.30;998.40
55719;DHT22;41623;46.104;19.656;2022-07-25T11:35:15;743.30;998.40
55719;DHT22;41623;46.104;19.656;2022-07-25T11:37:44;743.30;998.40
55719;DHT22;41623;46.104;19.656;2022-07-25T11:40:15;743.30;972.80
55719;DHT22;41623;46.104;19.656;2022-07-25T11:42:47;743.30;972.80
55719;DHT22;41623;46.104;19.656;2022-07-25T11:47:41;743.30;972.80
55719;DHT22;41623;46.104;19.656;2022-07-25T11:50:07;743.30;972.80
55719;DHT22;41623;46.104;19.656;2022-07-25T11:52:40;743.30;921.60
55719;DHT22;41623;46.104;19.656;2022-07-25T11:55:16;768.00;972.80
55719;DHT22;41623;46.104;19.656;2022-07-25T11:57:45;743.30;972.80
55719;DHT22;41623;46.104;19.656;2022-07-25T12:00:18;768.00;972.80
55719;DHT22;41623;46.104;19.656;2022-07-25T12:02:46;743.30;972.80
55719;DHT22;41623;46.104;19.656;2022-07-25T12:05:16;743.30;972.80
55719;DHT22;41623;46.104;19.656;2022-07-25T12:07:50;768.00;972.80
55719;DHT22;41623;46.104;19.656;2022-07-25T12:10:18;768.00;972.80
55719;DHT22;41623;46.104;19.656;2022-07-25T12:12:48;768.00;972.80
55719;DHT22;41623;46.104;19.656;2022-07-25T12:15:25;743.30;972.80
55719;DHT22;41623;46.104;19.656;2022-07-25T12:17:53;768.00;972.80
55719;DHT22;41623;46.104;19.656;2022-07-25T12:20:26;743.30;972.80
55719;DHT22;41623;46.104;19.656;2022-07-25T12:22:57;743.30;972.80
55719;DHT22;41623;46.104;19.656;2022-07-25T12:25:24;743.30;972.80
55719;DHT22;41623;46.104;19.656;2022-07-25T12:27:50;743.30;972.80
55719;DHT22;41623;46.104;19.656;2022-07-25T12:30:17;768.00;972.80
55719;DHT22;41623;46.104;19.656;2022-07-25T12:32:43;743.30;947.20
55719;DHT22;41623;46.104;19.656;2022-07-25T12:35:10;768.00;972.80
55719;DHT22;41623;46.104;19.656;2022-07-25T12:37:38;768.00;947.20
55719;DHT22;41623;46.104;19.656;2022-07-25T12:40:05;743.30;972.80
55719;DHT22;41623;46.104;19.656;2022-07-25T12:42:31;768.00;947.20
55719;DHT22;41623;46.104;19.656;2022-07-25T12:44:57;768.10;947.20
55719;DHT22;41623;46.104;19.656;2022-07-25T12:47:24;768.00;947.20
55719;DHT22;41623;46.104;19.656;2022-07-25T12:49:50;768.10;947.20
55719;DHT22;41623;46.104;19.656;2022-07-25T12:52:16;768.10;896.00
55719;DHT22;41623;46.104;19.656;2022-07-25T12:54:42;768.10;947.20
55719;DHT22;41623;46.104;19.656;2022-07-25T12:57:09;768.10;947.20
55719;DHT22;41623;46.104;19.656;2022-07-25T12:59:35;768.10;947.20
55719;DHT22;41623;46.104;19.656;2022-07-25T13:02:01;768.10;947.20
55719;DHT22;41623;46.104;19.656;2022-07-25T13:04:27;768.10;947.20
55719;DHT22;41623;46.104;19.656;2022-07-25T13:06:56;768.10;947.20
55719;DHT22;41623;46.104;19.656;2022-07-25T13:09:23;768.10;870.40
55719;DHT22;41623;46.104;19.656;2022-07-25T13:11:49;768.10;844.80
55719;DHT22;41623;46.104;19.656;2022-07-25T13:14:15;768.10;947.20
55719;DHT22;41623;46.104;19.656;2022-07-25T13:16:45;768.20;819.20
55719;DHT22;41623;46.104;19.656;2022-07-25T13:19:13;768.30;896.00
55719;DHT22;41623;46.104;19.656;2022-07-25T13:21:39;768.30;896.00
55719;DHT22;41623;46.104;19.656;2022-07-25T13:24:05;768.20;921.60
55719;DHT22;41623;46.104;19.656;2022-07-25T13:26:36;768.10;921.60
55719;DHT22;41623;46.104;19.656;2022-07-25T13:29:02;768.20;921.60
55719;DHT22;41623;46.104;19.656;2022-07-25T13:31:30;768.10;921.60
55719;DHT22;41623;46.104;19.656;2022-07-25T13:33:56;768.10;947.20
55719;DHT22;41623;46.104;19.656;2022-07-25T13:36:22;768.10;921.60
55719;DHT22;41623;46.104;19.656;2022-07-25T13:38:47;768.10;921.60
55719;DHT22;41623;46.104;19.656;2022-07-25T13:41:13;768.20;921.60
55719;DHT22;41623;46.104;19.656;2022-07-25T13:43:39;768.20;921.60
55719;DHT22;41623;46.104;19.656;2022-07-25T13:46:07;768.10;921.60
55719;DHT22;41623;46.104;19.656;2022-07-25T13:48:33;768.10;921.60
55719;DHT22;41623;46.104;19.656;2022-07-25T13:51:00;768.20;921.60
55719;DHT22;41623;46.104;19.656;2022-07-25T13:53:26;768.20;921.60
55719;DHT22;41623;46.104;19.656;2022-07-25T13:55:52;768.20;921.60
55719;DHT22;41623;46.104;19.656;2022-07-25T13:58:17;768.20;921.60
55719;DHT22;41623;46.104;19.656;2022-07-25T14:00:43;768.10;921.60
55719;DHT22;41623;46.104;19.656;2022-07-25T14:03:10;768.10;921.60
55719;DHT22;41623;46.104;19.656;2022-07-25T14:05:37;768.10;921.60
55719;DHT22;41623;46.104;19.656;2022-07-25T14:08:04;768.20;921.60
55719;DHT22;41623;46.104;19.656;2022-07-25T14:10:30;768.10;921.60
55719;DHT22;41623;46.104;19.656;2022-07-25T14:12:55;768.10;921.60
55719;DHT22;41623;46.104;19.656;2022-07-25T14:15:21;768.10;921.60
55719;DHT22;41623;46.104;19.656;2022-07-25T14:17:47;768.10;921.60
55719;DHT22;41623;46.104;19.656;2022-07-25T14:20:13;768.10;947.20
55719;DHT22;41623;46.104;19.656;2022-07-25T14:22:39;768.10;947.20
55719;DHT22;41623;46.104;19.656;2022-07-25T14:25:07;768.10;947.20
55719;DHT22;41623;46.104;19.656;2022-07-25T14:27:33;768.10;921.60
55719;DHT22;41623;46.104;19.656;2022-07-25T14:29:59;768.20;921.60
55719;DHT22;41623;46.104;19.656;2022-07-25T14:32:25;768.20;921.60
55719;DHT22;41623;46.104;19.656;2022-07-25T14:34:51;768.10;921.60
55719;DHT22;41623;46.104;19.656;2022-07-25T14:37:18;768.20;921.60
55719;DHT22;41623;46.104;19.656;2022-07-25T14:39:45;768.20;921.60
55719;DHT22;41623;46.104;19.656;2022-07-25T14:42:11;768.10;921.60
55719;DHT22;41623;46.104;19.656;2022-07-25T14:44:38;768.20;921.60
55719;DHT22;41623;46.104;19.656;2022-07-25T14:47:05;768.10;921.60
55719;DHT22;41623;46.104;19.656;2022-07-25T14:49:31;768.20;921.60
55719;DHT22;41623;46.104;19.656;2022-07-25T14:51:57;768.10;921.60
55719;DHT22;41623;46.104;19.656;2022-07-25T14:54:23;768.10;947.20
55719;DHT22;41623;46.104;19.656;2022-07-25T14:56:54;768.20;921.60
55719;DHT22;41623;46.104;19.656;2022-07-25T14:59:19;768.20;921.60
55719;DHT22;41623;46.104;19.656;2022-07-25T15:01:45;768.20;921.60
55719;DHT22;41623;46.104;19.656;2022-07-25T15:04:11;768.20;921.60
55719;DHT22;41623;46.104;19.656;2022-07-25T15:06:37;768.20;921.60
55719;DHT22;41623;46.104;19.656;2022-07-25T15:09:03;768.20;921.60
55719;DHT22;41623;46.104;19.656;2022-07-25T15:11:29;768.20;896.00
55719;DHT22;41623;46.104;19.656;2022-07-25T15:13:55;768.20;921.60
55719;DHT22;41623;46.104;19.656;2022-07-25T15:16:22;768.20;921.60
55719;DHT22;41623;46.104;19.656;2022-07-25T15:18:48;768.20;921.60
55719;DHT22;41623;46.104;19.656;2022-07-25T15:21:14;768.20;921.60
55719;DHT22;41623;46.104;19.656;2022-07-25T15:23:39;768.20;921.60
55719;DHT22;41623;46.104;19.656;2022-07-25T15:26:06;768.20;896.00
55719;DHT22;41623;46.104;19.656;2022-07-25T15:28:34;768.20;896.00
55719;DHT22;41623;46.104;19.656;2022-07-25T15:31:01;768.30;896.00